Time,TemperatureF,DewpointF,PressureIn,WindDirection,WindDirectionDegrees,WindSpeedMPH,WindSpeedGustMPH,Humidity,HourlyPrecipIn,Conditions,Clouds,dailyrainin,SolarRadiationWatts/m^2,SoftwareType,DateUTC
2013-04-02 00:04:00,50.0,-99.9,-100.00,North,351,2.0,5.0,-999,0.00,,,0.00,0.000000,,2013-04-02 10:04:00,
2013-04-02 00:13:00,50.0,-99.9,-100.00,North,351,2.0,5.0,-999,0.00,,,0.00,0.000000,,2013-04-02 10:13:00,
2013-04-02 00:23:00,50.0,-99.9,-100.00,North,352,2.0,5.0,-999,0.00,,,0.00,0.000000,,2013-04-02 10:23:00,
2013-04-02 00:43:00,50.0,-99.9,-100.00,North,352,2.0,5.0,-999,0.00,,,0.00,0.000000,,2013-04-02 10:43:00,
2013-04-02 00:53:00,50.0,-99.9,-100.00,North,352,2.0,5.0,-999,0.00,,,0.00,0.000000,,2013-04-02 10:53:00,
2013-04-02 01:03:00,50.0,-99.9,-100.00,North,352,2.0,5.0,-999,0.00,,,0.00,0.000000,,2013-04-02 11:03:00,
2013-04-02 01:12:00,50.0,-99.9,-100.00,North,352,2.0,5.0,-999,0.00,,,0.00,0.000000,,2013-04-02 11:12:00,
2013-04-02 01:23:00,51.0,-99.9,-100.00,North,354,2.0,4.0,-999,0.00,,,0.00,0.000000,,2013-04-02 11:23:00,
2013-04-02 01:43:00,51.0,-99.9,-100.00,North,354,2.0,4.0,-999,0.00,,,0.00,0.000000,,2013-04-02 11:43:00,
2013-04-02 01:53:00,51.0,-99.9,-100.00,North,354,2.0,4.0,-999,0.00,,,0.00,0.000000,,2013-04-02 11:53:00,
2013-04-02 02:02:00,51.0,-99.9,-100.00,North,354,2.0,4.0,-999,0.00,,,0.00,0.000000,,2013-04-02 12:02:00,
2013-04-02 02:12:00,51.0,-99.9,-100.00,North,354,2.0,4.0,-999,0.00,,,0.00,0.000000,,2013-04-02 12:12:00,
2013-04-02 02:23:00,50.0,-99.9,-100.00,North,353,2.0,5.0,-999,0.00,,,0.00,0.000000,,2013-04-02 12:23:00,
2013-04-02 02:43:00,50.0,-99.9,-100.00,North,353,2.0,5.0,-999,0.00,,,0.00,0.000000,,2013-04-02 12:43:00,
2013-04-02 02:53:00,50.0,-99.9,-100.00,North,353,2.0,5.0,-999,0.00,,,0.00,0.000000,,2013-04-02 12:53:00,
2013-04-02 03:02:00,50.0,-99.9,-100.00,North,353,2.0,5.0,-999,0.00,,,0.00,0.000000,,2013-04-02 13:02:00,
2013-04-02 03:12:00,50.0,-99.9,-100.00,North,353,2.0,5.0,-999,0.00,,,0.00,0.000000,,2013-04-02 13:12:00,
2013-04-02 03:23:00,50.0,-99.9,-100.00,North,359,2.0,3.0,-999,0.00,,,0.00,0.000000,,2013-04-02 13:23:00,
2013-04-02 03:42:00,50.0,-99.9,-100.00,North,359,2.0,3.0,-999,0.00,,,0.00,0.000000,,2013-04-02 13:42:00,
2013-04-02 03:53:00,50.0,-99.9,-100.00,North,359,2.0,3.0,-999,0.00,,,0.00,0.000000,,2013-04-02 13:53:00,
2013-04-02 04:02:00,50.0,-99.9,-100.00,North,359,2.0,3.0,-999,0.00,,,0.00,0.000000,,2013-04-02 14:02:00,
2013-04-02 04:13:00,50.0,-99.9,-100.00,North,359,2.0,3.0,-999,0.00,,,0.00,0.000000,,2013-04-02 14:13:00,
2013-04-02 04:23:00,51.0,-99.9,-100.00,North,358,2.0,3.0,-999,0.00,,,0.00,0.000000,,2013-04-02 14:23:00,
2013-04-02 04:43:00,51.0,-99.9,-100.00,North,358,2.0,3.0,-999,0.00,,,0.00,0.000000,,2013-04-02 14:43:00,
2013-04-02 04:53:00,51.0,-99.9,-100.00,North,358,2.0,3.0,-999,0.00,,,0.00,0.000000,,2013-04-02 14:53:00,
2013-04-02 05:02:00,51.0,-99.9,-100.00,North,358,2.0,3.0,-999,0.00,,,0.00,0.000000,,2013-04-02 15:02:00,
2013-04-02 05:12:00,51.0,-99.9,-100.00,North,358,2.0,3.0,-999,0.00,,,0.00,0.000000,,2013-04-02 15:12:00,
2013-04-02 05:23:00,48.0,-99.9,-100.00,North,355,2.0,4.0,-999,0.00,,,0.00,0.000000,,2013-04-02 15:23:00,
2013-04-02 05:43:00,48.0,-99.9,-100.00,North,355,2.0,4.0,-999,0.00,,,0.00,0.000000,,2013-04-02 15:43:00,
2013-04-02 05:58:00,48.0,-99.9,-100.00,North,355,2.0,4.0,-999,0.00,,,0.00,0.000000,,2013-04-02 15:58:00,
2013-04-02 06:04:00,48.0,-99.9,-100.00,North,355,2.0,4.0,-999,0.00,,,0.00,0.000000,,2013-04-02 16:04:00,
2013-04-02 06:14:00,48.0,-99.9,-100.00,North,355,2.0,4.0,-999,0.00,,,0.00,0.000000,,2013-04-02 16:14:00,
2013-04-02 06:23:00,50.0,-99.9,-100.00,North,353,2.0,4.0,-999,0.00,,,-99.99,0.000000,,2013-04-02 16:23:00,
2013-04-02 06:44:00,50.0,-99.9,-100.00,North,353,2.0,4.0,-999,0.00,,,-99.99,0.000000,,2013-04-02 16:44:00,
2013-04-02 06:54:00,50.0,-99.9,-100.00,North,353,2.0,4.0,-999,0.00,,,-99.99,0.000000,,2013-04-02 16:54:00,
2013-04-02 07:07:00,50.0,-99.9,-100.00,North,353,2.0,4.0,-999,0.00,,,-99.99,0.000000,,2013-04-02 17:07:00,
2013-04-02 07:14:00,50.0,-99.9,-100.00,North,353,2.0,4.0,-999,0.00,,,-99.99,0.000000,,2013-04-02 17:14:00,
2013-04-02 07:23:00,49.0,-99.9,-100.00,North,355,3.0,5.0,-999,0.00,,,0.00,13.000000,,2013-04-02 17:23:00,
2013-04-02 07:44:00,49.0,-99.9,-100.00,North,355,3.0,5.0,-999,0.00,,,0.00,13.000000,,2013-04-02 17:44:00,
2013-04-02 07:57:00,49.0,-99.9,-100.00,North,355,3.0,5.0,-999,0.00,,,0.00,13.000000,,2013-04-02 17:57:00,
2013-04-02 08:05:00,49.0,-99.9,-100.00,North,355,3.0,5.0,-999,0.00,,,0.00,13.000000,,2013-04-02 18:05:00,
2013-04-02 08:13:00,49.0,-99.9,-100.00,North,355,3.0,5.0,-999,0.00,,,0.00,13.000000,,2013-04-02 18:13:00,
2013-04-02 08:43:00,53.0,43.0,-100.00,NNE,16,2.0,10.0,70,0.00,,,0.00,194.000000,,2013-04-02 18:43:00,
2013-04-02 08:55:00,53.0,43.0,-100.00,NNE,16,2.0,10.0,70,0.00,,,0.00,194.000000,,2013-04-02 18:55:00,
2013-04-02 09:02:00,53.0,43.0,-100.00,NNE,16,2.0,10.0,70,0.00,,,0.00,194.000000,,2013-04-02 19:02:00,
2013-04-02 09:12:00,53.0,43.0,-100.00,NNE,16,2.0,10.0,70,0.00,,,0.00,194.000000,,2013-04-02 19:12:00,
2013-04-02 09:46:00,61.0,46.0,-100.00,SSE,153,1.0,6.0,57,0.00,,,0.00,447.000000,,2013-04-02 19:46:00,
2013-04-02 09:55:00,61.0,46.0,-100.00,SSE,153,1.0,6.0,57,0.00,,,0.00,447.000000,,2013-04-02 19:55:00,
2013-04-02 10:03:00,61.0,46.0,-100.00,SSE,153,1.0,6.0,57,0.00,,,0.00,447.000000,,2013-04-02 20:03:00,
2013-04-02 10:12:00,61.0,46.0,-100.00,SSE,153,1.0,6.0,57,0.00,,,0.00,447.000000,,2013-04-02 20:12:00,
2013-04-02 10:21:00,61.0,46.0,-100.00,SSE,153,1.0,6.0,57,0.00,,,0.00,447.000000,,2013-04-02 20:21:00,
2013-04-02 10:54:00,65.0,51.0,-100.00,South,172,3.0,8.0,61,0.00,,,0.00,672.000000,,2013-04-02 20:54:00,
2013-04-02 11:03:00,65.0,51.0,-100.00,South,172,3.0,8.0,61,0.00,,,0.00,672.000000,,2013-04-02 21:03:00,
2013-04-02 11:12:00,65.0,51.0,-100.00,South,172,3.0,8.0,61,0.00,,,0.00,672.000000,,2013-04-02 21:12:00,
2013-04-02 11:22:00,65.0,51.0,-100.00,South,172,3.0,8.0,61,0.00,,,0.00,672.000000,,2013-04-02 21:22:00,
2013-04-02 11:44:00,64.0,52.0,-100.00,SSE,168,3.0,10.0,66,0.00,,,0.00,628.000000,,2013-04-02 21:44:00,
2013-04-02 11:55:00,64.0,52.0,-100.00,SSE,168,3.0,10.0,66,0.00,,,0.00,628.000000,,2013-04-02 21:55:00,
2013-04-02 12:03:00,64.0,52.0,-100.00,SSE,168,3.0,10.0,66,0.00,,,0.00,628.000000,,2013-04-02 22:03:00,
2013-04-02 12:13:00,64.0,52.0,-100.00,SSE,168,3.0,10.0,66,0.00,,,0.00,628.000000,,2013-04-02 22:13:00,
2013-04-02 12:22:00,64.0,52.0,-100.00,SSE,168,3.0,10.0,66,0.00,,,0.00,628.000000,,2013-04-02 22:22:00,
2013-04-02 12:44:00,63.0,48.0,-100.00,SSE,165,3.0,12.0,58,0.00,,,0.00,475.000000,,2013-04-02 22:44:00,
2013-04-02 12:53:00,63.0,48.0,-100.00,SSE,165,3.0,12.0,58,0.00,,,0.00,475.000000,,2013-04-02 22:53:00,
2013-04-02 13:02:00,63.0,48.0,-100.00,SSE,165,3.0,12.0,58,0.00,,,0.00,475.000000,,2013-04-02 23:02:00,
2013-04-02 13:12:00,63.0,48.0,-100.00,SSE,165,3.0,12.0,58,0.00,,,0.00,475.000000,,2013-04-02 23:12:00,
2013-04-02 13:22:00,63.0,48.0,-100.00,SSE,165,3.0,12.0,58,0.00,,,0.00,475.000000,,2013-04-02 23:22:00,
2013-04-02 13:43:00,65.0,47.0,-100.00,SSE,165,4.0,11.0,52,0.00,,,0.00,624.000000,,2013-04-02 23:43:00,
2013-04-02 13:54:00,65.0,47.0,-100.00,SSE,165,4.0,11.0,52,0.00,,,0.00,624.000000,,2013-04-02 23:54:00,
2013-04-02 14:03:00,65.0,47.0,-100.00,SSE,165,4.0,11.0,52,0.00,,,0.00,624.000000,,2013-04-03 00:03:00,
2013-04-02 14:12:00,65.0,47.0,-100.00,SSE,165,4.0,11.0,52,0.00,,,0.00,624.000000,,2013-04-03 00:12:00,
2013-04-02 14:22:00,65.0,47.0,-100.00,SSE,165,4.0,11.0,52,0.00,,,0.00,624.000000,,2013-04-03 00:22:00,
2013-04-02 14:47:00,65.0,53.0,-100.00,SSE,166,4.0,11.0,65,0.00,,,0.00,487.000000,,2013-04-03 00:47:00,
2013-04-02 14:55:00,65.0,53.0,-100.00,SSE,166,4.0,11.0,65,0.00,,,0.00,487.000000,,2013-04-03 00:55:00,
2013-04-02 15:03:00,65.0,53.0,-100.00,SSE,166,4.0,11.0,65,0.00,,,0.00,487.000000,,2013-04-03 01:03:00,
2013-04-02 15:12:00,65.0,53.0,-100.00,SSE,166,4.0,11.0,65,0.00,,,0.00,487.000000,,2013-04-03 01:12:00,
2013-04-02 15:21:00,65.0,53.0,-100.00,SSE,166,4.0,11.0,65,0.00,,,0.00,487.000000,,2013-04-03 01:21:00,
2013-04-02 15:42:00,65.0,54.0,-100.00,SSE,160,5.0,13.0,68,0.00,,,0.00,716.000000,,2013-04-03 01:42:00,
2013-04-02 15:53:00,65.0,54.0,-100.00,SSE,160,5.0,13.0,68,0.00,,,0.00,716.000000,,2013-04-03 01:53:00,
2013-04-02 16:03:00,65.0,54.0,-100.00,SSE,160,5.0,13.0,68,0.00,,,0.00,716.000000,,2013-04-03 02:03:00,
2013-04-02 16:12:00,65.0,54.0,-100.00,SSE,160,5.0,13.0,68,0.00,,,0.00,716.000000,,2013-04-03 02:12:00,
2013-04-02 16:21:00,65.0,54.0,-100.00,SSE,160,5.0,13.0,68,0.00,,,0.00,716.000000,,2013-04-03 02:21:00,
2013-04-02 16:44:00,62.0,54.0,-100.00,SSE,152,3.0,10.0,75,0.00,,,0.00,275.000000,,2013-04-03 02:44:00,
2013-04-02 16:53:00,62.0,54.0,-100.00,SSE,152,3.0,10.0,75,0.00,,,0.00,275.000000,,2013-04-03 02:53:00,
2013-04-02 17:03:00,62.0,54.0,-100.00,SSE,152,3.0,10.0,75,0.00,,,0.00,275.000000,,2013-04-03 03:03:00,
2013-04-02 17:13:00,62.0,54.0,-100.00,SSE,152,3.0,10.0,75,0.00,,,0.00,275.000000,,2013-04-03 03:13:00,
2013-04-02 17:21:00,62.0,54.0,-100.00,SSE,152,3.0,10.0,75,0.00,,,0.00,275.000000,,2013-04-03 03:21:00,
2013-04-02 17:23:00,61.0,55.0,-100.00,South,169,3.0,8.0,81,0.00,,,0.00,231.000000,,2013-04-03 03:23:00,
2013-04-02 17:44:00,61.0,55.0,-100.00,South,169,3.0,8.0,81,0.00,,,0.00,231.000000,,2013-04-03 03:44:00,
2013-04-02 17:54:00,61.0,55.0,-100.00,South,169,3.0,8.0,81,0.00,,,0.00,231.000000,,2013-04-03 03:54:00,
2013-04-02 18:03:00,61.0,55.0,-100.00,South,169,3.0,8.0,81,0.00,,,0.00,231.000000,,2013-04-03 04:03:00,
2013-04-02 18:12:00,61.0,55.0,-100.00,South,169,3.0,8.0,81,0.00,,,0.00,231.000000,,2013-04-03 04:12:00,
2013-04-02 18:43:00,59.0,54.0,-100.00,SSE,157,2.0,8.0,85,0.00,,,-99.99,107.000000,,2013-04-03 04:43:00,
2013-04-02 18:53:00,59.0,54.0,-100.00,SSE,157,2.0,8.0,85,0.00,,,-99.99,107.000000,,2013-04-03 04:53:00,
2013-04-02 19:02:00,59.0,54.0,-100.00,SSE,157,2.0,8.0,85,0.00,,,-99.99,107.000000,,2013-04-03 05:02:00,
2013-04-02 19:12:00,59.0,54.0,-100.00,SSE,157,2.0,8.0,85,0.00,,,-99.99,107.000000,,2013-04-03 05:12:00,
2013-04-02 19:22:00,59.0,54.0,-100.00,SSE,157,2.0,8.0,85,0.00,,,-99.99,107.000000,,2013-04-03 05:22:00,
2013-04-02 19:42:00,58.0,-99.9,-100.00,SSE,164,2.0,7.0,-999,0.00,,,0.00,10.000000,,2013-04-03 05:42:00,
2013-04-02 19:53:00,58.0,-99.9,-100.00,SSE,164,2.0,7.0,-999,0.00,,,0.00,10.000000,,2013-04-03 05:53:00,
2013-04-02 20:03:00,58.0,-99.9,-100.00,SSE,164,2.0,7.0,-999,0.00,,,0.00,10.000000,,2013-04-03 06:03:00,
2013-04-02 20:12:00,58.0,-99.9,-100.00,SSE,164,2.0,7.0,-999,0.00,,,0.00,10.000000,,2013-04-03 06:12:00,
2013-04-02 20:22:00,58.0,-99.9,-100.00,SSE,164,2.0,7.0,-999,0.00,,,0.00,10.000000,,2013-04-03 06:22:00,
2013-04-02 20:23:00,56.0,-99.9,-100.00,ESE,105,1.0,4.0,-999,0.00,,,0.00,0.000000,,2013-04-03 06:23:00,
2013-04-02 20:43:00,56.0,-99.9,-100.00,ESE,105,1.0,4.0,-999,0.00,,,0.00,0.000000,,2013-04-03 06:43:00,
2013-04-02 20:53:00,56.0,-99.9,-100.00,ESE,105,1.0,4.0,-999,0.00,,,0.00,0.000000,,2013-04-03 06:53:00,
2013-04-02 21:03:00,56.0,-99.9,-100.00,ESE,105,1.0,4.0,-999,0.00,,,0.00,0.000000,,2013-04-03 07:03:00,
2013-04-02 21:12:00,56.0,-99.9,-100.00,ESE,105,1.0,4.0,-999,0.00,,,0.00,0.000000,,2013-04-03 07:12:00,
2013-04-02 21:43:00,56.0,-99.9,-100.00,North,5,1.0,4.0,-999,0.00,,,-99.99,0.000000,,2013-04-03 07:43:00,
2013-04-02 21:53:00,56.0,-99.9,-100.00,North,5,1.0,4.0,-999,0.00,,,-99.99,0.000000,,2013-04-03 07:53:00,
2013-04-02 22:04:00,56.0,-99.9,-100.00,North,5,1.0,4.0,-999,0.00,,,-99.99,0.000000,,2013-04-03 08:04:00,
2013-04-02 22:12:00,56.0,-99.9,-100.00,North,5,1.0,4.0,-999,0.00,,,-99.99,0.000000,,2013-04-03 08:12:00,
2013-04-02 22:22:00,56.0,-99.9,-100.00,North,5,1.0,4.0,-999,0.00,,,-99.99,0.000000,,2013-04-03 08:22:00,
2013-04-02 22:43:00,55.0,-99.9,-100.00,North,9,3.0,9.0,-999,0.00,,,0.00,0.000000,,2013-04-03 08:43:00,
2013-04-02 22:52:00,55.0,-99.9,-100.00,North,9,3.0,9.0,-999,0.00,,,0.00,0.000000,,2013-04-03 08:52:00,
2013-04-02 23:02:00,55.0,-99.9,-100.00,North,9,3.0,9.0,-999,0.00,,,0.00,0.000000,,2013-04-03 09:02:00,
2013-04-02 23:12:00,55.0,-99.9,-100.00,North,9,3.0,9.0,-999,0.00,,,0.00,0.000000,,2013-04-03 09:12:00,
2013-04-02 23:22:00,55.0,-99.9,-100.00,North,9,3.0,9.0,-999,0.00,,,0.00,0.000000,,2013-04-03 09:22:00,
2013-04-02 23:53:00,54.0,-99.9,-100.00,North,1,1.0,5.0,-999,0.00,,,0.00,0.000000,,2013-04-03 09:53:00,